Tropical Cyclones
[Index]
Main Index Home Page Stock Weather Photos Extreme Storms Discussion Storm News and Storm Chasing Reports Tropical Cyclones / Hurricanes / Typhoons Weather Data and Links Wild Fires / Bushfires Weather Observation Techniques Weather Picture Catalogue Tornado Pictures and Reports Stock Video Footage and DVDs for sale
Season 1969-1970 Tropical Cyclone DOLLY Track Map
Season 1969-1970 Summaries: [BoM-AU] [JTWC-AU] [JTWC-SIO] [JTWC-SPAC] [JTWC-SH]
<<- Previous TC | JTWC 1969-1970 Season | Next TC ->>

click for intensity scale information  Lat/long Grid: Show Hide

 Date Labels: Show Hide

Joint Typhoon Warning Centre Cyclone Data

Name: DOLLY
Number: 731 / 7018

11 Feb 1970 12:00 UTC to 24 Feb 1970 12:00 UTC

    date/time    lat    long     hPa   cat  kts
1970-02-11 12   15.1   163.0                              
1970-02-11 18   15.6   163.6                              
1970-02-12 00   16.1   164.0                              
1970-02-12 06   16.8   164.1                              
1970-02-12 12   17.4   164.2                              
1970-02-12 18   17.6   164.6                              
1970-02-13 00   17.8   165.3                              
1970-02-13 06   18.0   166.5                              
1970-02-13 12   18.2   167.7                              
1970-02-13 18   18.5   168.7                              
1970-02-14 00   18.9   169.7                              
1970-02-14 06   19.5   170.7                              
1970-02-14 12   20.2   171.7                              
1970-02-14 18   20.8   172.7                              
1970-02-15 00   21.3   173.6                              
1970-02-15 06   21.7   174.6                              
1970-02-15 12   22.0   175.6                              
1970-02-15 18   22.1   176.2                              
1970-02-16 00   22.3   177.0                              
1970-02-16 06   23.0   178.6                              
1970-02-16 12   23.8   179.6W                             
1970-02-16 18   24.2   177.7W                             
1970-02-17 00   24.3   175.8W                             
1970-02-17 06   23.9   174.4W                             
1970-02-17 12   23.1   173.8W                             
1970-02-17 18   22.2   173.7W                             
1970-02-18 00   21.2   173.7W                             
1970-02-18 06   20.1   173.9W                             
1970-02-18 12   19.0   174.0W                             
1970-02-18 18   18.3   173.3W                             
1970-02-19 00   17.7   172.5W                             
1970-02-19 06   17.0   172.3W                             
1970-02-19 12   16.6   172.0W                             
1970-02-19 18   16.7   171.5W                             
1970-02-20 00   17.0   170.8W                             
1970-02-20 06   17.2   169.9W                             
1970-02-20 12   17.5   169.0W                             
1970-02-20 18   17.7   168.4W                             
1970-02-21 00   18.0   167.7W                             
1970-02-21 06   18.4   166.1W                             
1970-02-21 12   19.0   164.3W                             
1970-02-21 18   19.8   163.2W                             
1970-02-22 00   20.8   162.1W                             
1970-02-22 06   21.9   160.7W                             
1970-02-22 12   23.0   159.3W                             
1970-02-22 18   23.8   157.9W                             
1970-02-23 00   24.6   156.3W                             
1970-02-23 06   25.5   154.4W                             
1970-02-23 12   26.5   152.3W                             
1970-02-23 18   27.5   150.4W                             
1970-02-24 00   28.5   148.5W                             
1970-02-24 06   29.0   146.2W                             
1970-02-24 12   29.0   143.5W                             
Winds are 1-min average.

Tropical cyclone tracks developed by Michael Bath using data from the Joint Typhoon Warning Centre Best Tracks and Google Maps.


[Australian Severe Weather index] [Copyright Notice] [Email Contacts] [Search This Site] [Privacy Policy]
Document: tropical_cyclone_dolly.htm Updated: 18 September 2016